首页
METAR-TAF:

METAR-TAF

机场 :

邁亞密國際機場

迈阿密, 佛罗里达州, 美国

纬度: 25-47-26N, 经度: 080-18-59W, 海拔: 3米

当前天气观测

该预报发布于42分钟前的21:53 UTC
风速8节,风向东转东南
温度 28°C
湿度 62%
气压 1019 hPa
能見度: 16.1公里
少量云层高于3200英尺

METAR: KMIA 292153Z 11008KT 10SM FEW032 28/20 A3010 RMK AO2 SLP193 T02830200 $

时间: 18:35 (22:35 UTC)

预报

该预报发布于1小时和41分钟前的20:54 UTC
预报有效从29日的 21点(UTC)到 30日的 24点(UTC)
风速10节,风向东南
能見度: 10公里
少量云层高于3000英尺
从 30日的 0200点(UTC)
风速7节,风向东转东南
能見度: 10公里
散云层高于3000英尺
从 30日的 1400点(UTC)
风速9节,风向南转南东
能見度: 10公里
散云层高于2500英尺
散云层高于3500英尺

TAF: KMIA 292054Z 2921/3024 14010KT P6SM FEW030 FM300200 12007KT P6SM SCT030 FM301400 16009KT P6SM SCT025 SCT035

超过4000个机场的气象观测和天气预报(METAR&TAF报告)。

可查询的气象台以黄色和红色小点在地图上表示。

将鼠标移到小点上方,可查看气象台名称。

然后点击查看天气观测和预报。

如需切换地图:点击带黑十字的绿色按钮放大地图;点击带横线的绿色按钮缩小地图;或者点击绿色箭头查看邻近地区的地图。


METAR-TAF: